Time;durP1;ratioP1;P1;durP2;ratioP2;P2;SDS_P1;SDS_P2;PMS_P1;PMS_P2;Temp;Humidity;BMP_temperature;BMP_pressure;BME280_temperature;BME280_humidity;BME280_pressure;Samples;Min_cycle;Max_cycle;Signal;HPM_P1;HPM_P2
2023/01/25 00:01:49;;;;;;;32.38;20.90;;;3.50;99.90;;;;;;4096266;28;20463;-65
2023/01/25 00:03:50;;;;;;;35.00;21.60;;;3.50;99.90;;;;;;4093509;28;20043;-65
2023/01/25 00:05:59;;;;;;;35.17;22.50;;;3.50;99.90;;;;;;4093154;28;20549;-64
2023/01/25 00:07:59;;;;;;;32.17;20.38;;;3.50;99.90;;;;;;4097447;28;20039;-65
2023/01/25 00:10:00;;;;;;;32.35;20.83;;;3.60;99.90;;;;;;4097178;28;20042;-65
2023/01/25 00:12:01;;;;;;;36.10;20.80;;;3.50;99.90;;;;;;4094902;28;20193;-65
2023/01/25 00:14:02;;;;;;;32.92;20.00;;;3.50;99.90;;;;;;4092883;28;20483;-65
2023/01/25 00:16:03;;;;;;;35.22;21.42;;;3.40;99.90;;;;;;4096526;28;20047;-65
2023/01/25 00:18:04;;;;;;;37.90;23.30;;;3.40;99.90;;;;;;4094840;28;20047;-65
2023/01/25 00:20:05;;;;;;;40.28;23.00;;;3.30;99.90;;;;;;4097431;28;20067;-65
2023/01/25 00:22:06;;;;;;;31.40;19.52;;;3.30;99.90;;;;;;4096565;28;20494;-65
2023/01/25 00:24:07;;;;;;;34.30;19.98;;;3.20;99.90;;;;;;4093977;28;20031;-65
2023/01/25 00:26:07;;;;;;;29.90;19.38;;;3.30;99.90;;;;;;4094108;28;20538;-65
2023/01/25 00:28:08;;;;;;;29.70;19.42;;;3.30;99.90;;;;;;4094384;28;20039;-65
2023/01/25 00:30:09;;;;;;;36.45;21.92;;;3.30;99.90;;;;;;4092996;28;20090;-65
2023/01/25 00:32:10;;;;;;;29.90;18.83;;;3.20;99.90;;;;;;4093029;28;20135;-65
2023/01/25 00:34:22;;;;;;;33.53;20.02;;;3.20;99.90;;;;;;4094981;28;20031;-65
2023/01/25 00:36:40;;;;;;;31.17;19.20;;;3.30;99.90;;;;;;4091762;28;20047;-64
2023/01/25 00:38:42;;;;;;;30.80;18.20;;;3.20;99.90;;;;;;4096210;28;21130;-65
2023/01/25 00:40:43;;;;;;;32.95;20.30;;;3.30;99.90;;;;;;4093395;28;20035;-65
2023/01/25 00:42:43;;;;;;;29.92;17.27;;;3.30;99.90;;;;;;4096109;28;20042;-65
2023/01/25 00:44:44;;;;;;;26.80;17.92;;;3.30;99.90;;;;;;4094110;28;20118;-65
2023/01/25 00:46:45;;;;;;;36.50;21.27;;;3.30;99.90;;;;;;4093037;28;20035;-65
2023/01/25 00:48:46;;;;;;;36.10;21.95;;;3.20;99.90;;;;;;4098190;28;20487;-65
2023/01/25 00:50:47;;;;;;;32.97;19.75;;;3.00;99.90;;;;;;4092771;28;20047;-64
2023/01/25 00:52:47;;;;;;;30.23;18.92;;;3.10;99.90;;;;;;4094875;28;20062;-65
2023/01/25 00:54:48;;;;;;;31.13;18.98;;;3.10;99.90;;;;;;4093267;28;20039;-65
2023/01/25 00:56:52;;;;;;;29.42;18.63;;;3.20;99.90;;;;;;4078713;28;20499;-64
2023/01/25 00:58:52;;;;;;;30.50;19.25;;;3.20;99.90;;;;;;4095173;28;20055;-65
2023/01/25 01:00:54;;;;;;;29.95;18.77;;;3.20;99.90;;;;;;4094686;28;20054;-65
2023/01/25 01:02:55;;;;;;;31.07;18.37;;;3.20;99.90;;;;;;4101360;28;20035;-64
2023/01/25 01:04:55;;;;;;;32.15;20.00;;;3.20;99.90;;;;;;4092006;28;20122;-65
2023/01/25 01:06:56;;;;;;;31.27;18.73;;;3.20;99.90;;;;;;4093797;28;20035;-65
2023/01/25 01:08:56;;;;;;;29.67;18.27;;;3.20;99.90;;;;;;4096429;28;20039;-65
2023/01/25 01:11:00;;;;;;;28.42;16.80;;;3.30;99.90;;;;;;4093628;28;20047;-65
2023/01/25 01:13:00;;;;;;;25.17;15.75;;;3.30;99.90;;;;;;4093748;28;20036;-65
2023/01/25 01:15:01;;;;;;;29.25;17.58;;;3.30;99.90;;;;;;4097502;28;20082;-65
2023/01/25 01:17:02;;;;;;;25.40;15.32;;;3.30;99.90;;;;;;4093055;28;20061;-65
2023/01/25 01:19:03;;;;;;;25.90;16.33;;;3.30;99.90;;;;;;4093067;28;20035;-64
2023/01/25 01:21:05;;;;;;;27.15;16.25;;;3.40;99.90;;;;;;4096523;28;20066;-65
2023/01/25 01:23:05;;;;;;;30.17;17.80;;;3.30;99.90;;;;;;4093681;28;20043;-65
2023/01/25 01:25:07;;;;;;;26.63;16.55;;;3.40;99.90;;;;;;4078929;28;20047;-65
2023/01/25 01:27:07;;;;;;;25.00;16.38;;;3.40;99.90;;;;;;4094385;28;20084;-64
2023/01/25 01:29:08;;;;;;;27.45;16.92;;;3.50;99.90;;;;;;4095392;28;20446;-64
2023/01/25 01:31:16;;;;;;;27.85;16.73;;;3.50;99.90;;;;;;4101019;28;20487;-65
2023/01/25 01:33:17;;;;;;;25.10;16.40;;;3.50;99.90;;;;;;4097632;28;20600;-64
2023/01/25 01:35:18;;;;;;;26.33;16.45;;;3.50;99.90;;;;;;4094822;28;20050;-64
2023/01/25 01:37:18;;;;;;;26.85;15.95;;;3.60;99.90;;;;;;4095708;28;20130;-65
2023/01/25 01:39:19;;;;;;;25.02;16.05;;;3.50;99.90;;;;;;4088950;28;20150;-64
2023/01/25 01:41:20;;;;;;;27.92;17.88;;;3.50;99.90;;;;;;4097705;28;20409;-64
2023/01/25 01:43:23;;;;;;;27.65;18.45;;;3.50;99.90;;;;;;4096742;28;20043;-64
2023/01/25 01:45:42;;;;;;;;;;;3.40;99.90;;;;;;4078075;29;21482;-64
2023/01/25 01:47:45;;;;;;;25.08;17.23;;;3.40;99.90;;;;;;4092179;28;19977;-67
2023/01/25 01:49:52;;;;;;;22.60;15.52;;;3.30;99.90;;;;;;4097043;28;20039;-64
2023/01/25 01:52:01;;;;;;;26.55;17.38;;;3.30;99.90;;;;;;4096274;28;20094;-65
2023/01/25 01:54:16;;;;;;;26.70;17.27;;;3.20;99.90;;;;;;4093101;28;20343;-65
2023/01/25 01:56:33;;;;;;;30.05;18.02;;;3.10;99.90;;;;;;4087158;28;20074;-65
2023/01/25 01:58:35;;;;;;;26.73;16.95;;;3.00;99.90;;;;;;4096447;28;20035;-65
2023/01/25 02:00:38;;;;;;;29.70;17.23;;;3.00;99.90;;;;;;4078268;29;20123;-65
2023/01/25 02:02:40;;;;;;;28.70;18.60;;;3.10;99.90;;;;;;4097212;28;20504;-65
2023/01/25 02:04:48;;;;;;;28.10;17.80;;;2.90;99.90;;;;;;4097588;28;20110;-65
2023/01/25 02:07:04;;;;;;;29.67;17.00;;;2.90;99.90;;;;;;4093761;28;20102;-65
2023/01/25 02:09:05;;;;;;;23.10;16.08;;;2.90;99.90;;;;;;4095363;28;20410;-65
2023/01/25 02:11:07;;;;;;;26.73;16.48;;;3.00;99.90;;;;;;4095255;28;20043;-65
2023/01/25 02:13:08;;;;;;;27.13;16.70;;;3.00;99.90;;;;;;4096213;28;20039;-65
2023/01/25 02:15:09;;;;;;;31.42;18.90;;;3.10;99.90;;;;;;4098513;28;20542;-65
2023/01/25 02:17:11;;;;;;;29.88;19.15;;;3.10;99.90;;;;;;4097828;28;20039;-65
2023/01/25 02:19:55;;;;;;;26.83;17.73;;;3.10;99.90;;;;;;4097434;28;20070;-65
2023/01/25 02:21:58;;;;;;;30.67;19.40;;;3.10;99.90;;;;;;4088370;28;20463;-65
2023/01/25 02:24:08;;;;;;;34.38;20.17;;;3.00;99.90;;;;;;4096956;28;20109;-65
2023/01/25 02:26:09;;;;;;;31.63;19.85;;;2.90;99.90;;;;;;4097148;28;20094;-65
2023/01/25 02:28:18;;;;;;;30.60;18.85;;;3.00;99.90;;;;;;4096643;28;20502;-65
2023/01/25 02:30:19;;;;;;;26.13;17.02;;;3.00;99.90;;;;;;4095700;28;20047;-65
2023/01/25 02:32:20;;;;;;;30.15;18.48;;;3.00;99.90;;;;;;4097688;28;20078;-65
2023/01/25 02:34:21;;;;;;;26.88;16.88;;;3.10;99.90;;;;;;4096712;28;20033;-65
2023/01/25 02:36:30;;;;;;;27.05;17.85;;;3.10;99.90;;;;;;4095041;28;20043;-65
2023/01/25 02:38:36;;;;;;;30.02;18.95;;;3.10;99.90;;;;;;4098172;28;20490;-65
2023/01/25 02:40:59;;;;;;;27.17;17.65;;;3.10;99.90;;;;;;4095811;28;20535;-66
2023/01/25 02:42:59;;;;;;;;;;;3.10;99.90;;;;;;4096311;28;20054;-65
2023/01/25 02:45:00;;;;;;;34.00;19.58;;;3.10;99.90;;;;;;4097814;28;19910;-65
2023/01/25 02:47:01;;;;;;;31.35;19.40;;;3.00;99.90;;;;;;4086963;28;20031;-65
2023/01/25 02:49:03;;;;;;;30.25;18.58;;;3.10;99.90;;;;;;4095610;28;20039;-65
2023/01/25 02:51:07;;;;;;;30.52;18.25;;;3.10;99.90;;;;;;4098534;28;20046;-65
2023/01/25 02:53:08;;;;;;;30.00;18.35;;;3.10;99.90;;;;;;4096217;28;20075;-65
2023/01/25 02:55:09;;;;;;;27.27;18.05;;;3.10;99.90;;;;;;4097225;28;20134;-66
2023/01/25 02:57:09;;;;;;;29.33;18.70;;;3.10;99.90;;;;;;4098964;28;20517;-65
2023/01/25 02:59:12;;;;;;;28.25;18.15;;;3.10;99.90;;;;;;4096622;28;20039;-65
2023/01/25 03:01:13;;;;;;;30.30;18.63;;;3.20;99.90;;;;;;4093539;28;20047;-65
2023/01/25 03:03:14;;;;;;;25.90;17.30;;;3.20;99.90;;;;;;4096609;28;20058;-65
2023/01/25 03:05:15;;;;;;;25.90;17.33;;;3.20;99.90;;;;;;4095118;28;20035;-65
2023/01/25 03:07:15;;;;;;;29.55;19.48;;;3.20;99.90;;;;;;4094332;28;20086;-65
2023/01/25 03:09:16;;;;;;;27.98;18.10;;;3.30;99.90;;;;;;4082649;28;20567;-65
2023/01/25 03:11:16;;;;;;;29.55;19.38;;;3.30;99.90;;;;;;4093300;28;20039;-65
2023/01/25 03:13:17;;;;;;;27.42;18.13;;;3.40;99.90;;;;;;4098582;28;20615;-65
2023/01/25 03:15:18;;;;;;;26.45;17.42;;;3.40;99.90;;;;;;4093075;28;20058;-65
2023/01/25 03:17:18;;;;;;;28.65;18.33;;;3.40;99.90;;;;;;4094500;28;20040;-65
2023/01/25 03:19:19;;;;;;;27.70;17.40;;;3.40;99.90;;;;;;4097257;28;20347;-65
2023/01/25 03:21:21;;;;;;;27.08;18.25;;;3.40;99.90;;;;;;4096953;28;20082;-65
2023/01/25 03:23:22;;;;;;;27.83;19.02;;;3.40;99.90;;;;;;4099155;28;20031;-65
2023/01/25 03:25:22;;;;;;;33.05;20.00;;;3.40;99.90;;;;;;4092953;28;20399;-65
2023/01/25 03:27:23;;;;;;;33.03;19.88;;;3.30;99.90;;;;;;4084880;29;20075;-64
2023/01/25 03:29:24;;;;;;;28.80;18.48;;;3.20;99.90;;;;;;4096904;28;20129;-65
2023/01/25 03:31:24;;;;;;;28.40;17.75;;;3.30;99.90;;;;;;4094718;28;20063;-65
2023/01/25 03:33:25;;;;;;;28.65;19.98;;;3.30;99.90;;;;;;4095540;28;20077;-65
2023/01/25 03:35:26;;;;;;;30.67;19.88;;;3.30;99.90;;;;;;4091355;28;20047;-65
2023/01/25 03:37:28;;;;;;;31.75;19.67;;;3.20;99.90;;;;;;4098194;28;20040;-65
2023/01/25 03:39:29;;;;;;;32.47;19.95;;;3.20;99.90;;;;;;4095131;28;20053;-65
2023/01/25 03:41:30;;;;;;;36.13;22.58;;;3.20;99.90;;;;;;4095734;28;20086;-64
2023/01/25 03:43:30;;;;;;;33.13;21.52;;;3.10;99.90;;;;;;4097010;28;20119;-65
2023/01/25 03:45:31;;;;;;;33.78;21.38;;;3.00;99.90;;;;;;4095362;28;20109;-65
2023/01/25 03:47:31;;;;;;;31.20;20.75;;;3.00;99.90;;;;;;4094008;28;20035;-66
2023/01/25 03:49:32;;;;;;;32.10;19.27;;;3.00;99.90;;;;;;4092936;28;20039;-66
2023/01/25 03:51:33;;;;;;;30.38;19.70;;;3.10;99.90;;;;;;4096254;28;20043;-65
2023/01/25 03:53:33;;;;;;;29.58;19.10;;;3.00;99.90;;;;;;4096002;28;20431;-65
2023/01/25 03:55:34;;;;;;;30.58;19.67;;;3.10;99.90;;;;;;4092380;28;20739;-65
2023/01/25 03:57:35;;;;;;;32.55;20.55;;;3.00;99.90;;;;;;4094686;28;20106;-65
2023/01/25 03:59:35;;;;;;;29.20;19.52;;;2.80;99.90;;;;;;4099309;28;20028;-65
2023/01/25 04:01:36;;;;;;;26.98;17.85;;;2.80;99.90;;;;;;4098485;28;20118;-64
2023/01/25 04:03:37;;;;;;;27.02;17.88;;;2.80;99.90;;;;;;4096192;28;20097;-65
2023/01/25 04:05:37;;;;;;;28.88;18.33;;;2.90;99.90;;;;;;4091561;28;20134;-65
2023/01/25 04:07:38;;;;;;;29.42;19.15;;;2.90;99.90;;;;;;4099795;28;20135;-65
2023/01/25 04:09:39;;;;;;;30.80;18.92;;;2.90;99.90;;;;;;4097143;28;20119;-65
2023/01/25 04:11:40;;;;;;;24.08;17.05;;;3.00;99.90;;;;;;4093315;28;20086;-65
2023/01/25 04:13:40;;;;;;;29.20;18.33;;;3.00;99.90;;;;;;4097786;28;20027;-65
2023/01/25 04:15:41;;;;;;;30.67;18.98;;;3.00;99.90;;;;;;4091757;28;20039;-65
2023/01/25 04:17:41;;;;;;;29.55;19.58;;;3.00;99.90;;;;;;4093696;28;20045;-65
2023/01/25 04:19:42;;;;;;;29.15;17.77;;;3.10;99.90;;;;;;4095014;28;20035;-65
2023/01/25 04:21:43;;;;;;;31.38;20.80;;;3.10;99.90;;;;;;4096926;28;20371;-64
2023/01/25 04:23:43;;;;;;;33.22;19.55;;;3.10;99.90;;;;;;4099744;28;20083;-65
2023/01/25 04:25:55;;;;;;;31.67;19.73;;;3.10;99.90;;;;;;4095951;28;20043;-65
2023/01/25 04:27:55;;;;;;;32.70;20.55;;;3.10;99.90;;;;;;4095731;28;20515;-65
2023/01/25 04:29:56;;;;;;;33.55;20.90;;;3.10;99.90;;;;;;4095835;28;22870;-64
2023/01/25 04:31:56;;;;;;;36.95;22.75;;;3.10;99.90;;;;;;4096056;28;20043;-65
2023/01/25 04:33:57;;;;;;;35.75;21.33;;;3.00;99.90;;;;;;4096087;28;20550;-65
2023/01/25 04:35:58;;;;;;;37.53;21.92;;;3.10;99.90;;;;;;4094655;28;20043;-64
2023/01/25 04:37:59;;;;;;;36.80;22.27;;;3.00;99.90;;;;;;4093807;28;20042;-65
2023/01/25 04:39:59;;;;;;;35.13;21.08;;;3.00;99.90;;;;;;4094908;28;20059;-64
2023/01/25 04:42:00;;;;;;;34.40;20.95;;;2.90;99.90;;;;;;4096459;28;20094;-64
2023/01/25 04:44:00;;;;;;;33.28;21.70;;;2.90;99.90;;;;;;4086293;28;20122;-65
2023/01/25 04:46:01;;;;;;;33.95;20.88;;;2.90;99.90;;;;;;4095869;28;20035;-64
2023/01/25 04:48:04;;;;;;;32.60;18.70;;;2.90;99.90;;;;;;4096605;28;20031;-66
2023/01/25 04:50:05;;;;;;;28.92;18.48;;;2.90;99.90;;;;;;4094821;28;20147;-64
2023/01/25 04:52:06;;;;;;;35.30;21.52;;;2.90;99.90;;;;;;4094551;28;20043;-64
2023/01/25 04:54:07;;;;;;;39.92;23.75;;;2.90;99.90;;;;;;4091069;28;20537;-66
2023/01/25 04:56:08;;;;;;;40.92;24.15;;;2.90;99.90;;;;;;4094034;28;20049;-65
2023/01/25 04:58:08;;;;;;;35.90;22.85;;;2.90;99.90;;;;;;4094631;28;20042;-65
2023/01/25 05:00:10;;;;;;;42.08;24.38;;;2.80;99.90;;;;;;4096354;28;20406;-66
2023/01/25 05:02:10;;;;;;;40.10;24.75;;;2.80;99.90;;;;;;4098687;28;20041;-65
2023/01/25 05:04:11;;;;;;;40.35;24.25;;;2.80;99.90;;;;;;4089812;28;20130;-65
2023/01/25 05:06:11;;;;;;;40.58;25.17;;;2.80;99.90;;;;;;4094001;28;20054;-65
2023/01/25 05:08:12;;;;;;;37.95;23.13;;;2.70;99.90;;;;;;4093872;28;20039;-65
2023/01/25 05:10:13;;;;;;;35.47;21.98;;;2.70;99.90;;;;;;4096424;28;20070;-64
2023/01/25 05:12:13;;;;;;;36.45;22.55;;;2.60;99.90;;;;;;4093253;28;20043;-65
2023/01/25 05:14:15;;;;;;;40.00;22.73;;;2.60;99.90;;;;;;4088032;28;20045;-64
2023/01/25 05:16:15;;;;;;;42.20;25.65;;;2.70;99.90;;;;;;4091315;28;20143;-65
2023/01/25 05:18:16;;;;;;;43.25;25.17;;;2.60;99.90;;;;;;4093541;28;20071;-64
2023/01/25 05:20:17;;;;;;;37.17;22.48;;;2.60;99.90;;;;;;4094245;28;20038;-64
2023/01/25 05:22:19;;;;;;;40.10;24.10;;;2.50;99.90;;;;;;4093432;28;20047;-64
2023/01/25 05:24:20;;;;;;;36.22;23.38;;;2.60;99.90;;;;;;4093039;28;20035;-64
2023/01/25 05:28:40;;;;;;;38.63;23.15;;;2.60;99.90;;;;;;4089436;28;20044;-64
2023/01/25 05:30:40;;;;;;;34.58;21.77;;;2.60;99.90;;;;;;4094746;28;20039;-65
2023/01/25 05:32:41;;;;;;;36.10;22.23;;;2.70;99.90;;;;;;4095677;28;20047;-65
2023/01/25 05:34:42;;;;;;;31.35;20.00;;;2.70;99.90;;;;;;4087701;28;20048;-64
2023/01/25 05:36:43;;;;;;;30.45;19.88;;;2.70;99.90;;;;;;4091808;28;20044;-65
2023/01/25 05:38:43;;;;;;;31.48;19.70;;;2.80;99.90;;;;;;4096681;28;20043;-64
2023/01/25 05:40:44;;;;;;;31.95;18.75;;;2.80;99.90;;;;;;4093672;28;20415;-64
2023/01/25 05:42:51;;;;;;;37.10;22.38;;;2.80;99.90;;;;;;4095704;28;20454;-64
2023/01/25 05:44:53;;;;;;;37.80;24.13;;;2.90;99.90;;;;;;4093965;28;20061;-64
2023/01/25 05:46:54;;;;;;;45.07;24.93;;;2.90;99.90;;;;;;4093195;28;20490;-65
2023/01/25 05:48:54;;;;;;;37.38;23.00;;;2.90;99.90;;;;;;4097730;28;20035;-65
2023/01/25 05:50:58;;;;;;;35.58;22.15;;;2.90;99.90;;;;;;4095382;28;20293;-65
2023/01/25 05:52:59;;;;;;;37.58;22.48;;;3.00;99.90;;;;;;4096386;28;20930;-65
2023/01/25 05:55:00;;;;;;;37.30;21.52;;;3.00;99.90;;;;;;4095188;28;20306;-65
2023/01/25 05:57:01;;;;;;;34.85;21.23;;;3.00;99.90;;;;;;4094335;28;20043;-65
2023/01/25 05:59:02;;;;;;;34.83;22.15;;;3.00;99.90;;;;;;4096085;28;20035;-65
2023/01/25 06:01:04;;;;;;;39.53;24.50;;;3.00;99.90;;;;;;4095240;28;20438;-65
2023/01/25 06:03:04;;;;;;;37.13;23.38;;;3.00;99.90;;;;;;4098323;28;20041;-65
2023/01/25 06:05:06;;;;;;;33.85;21.98;;;3.00;99.90;;;;;;4095414;28;20055;-65
2023/01/25 06:07:06;;;;;;;32.60;20.42;;;3.00;99.90;;;;;;4094488;28;20466;-65
2023/01/25 06:09:08;;;;;;;36.88;22.55;;;2.90;99.90;;;;;;4095557;28;20039;-65
2023/01/25 06:11:14;;;;;;;44.25;24.55;;;2.90;99.90;;;;;;4094446;28;20752;-65
2023/01/25 06:13:15;;;;;;;35.03;22.55;;;3.00;99.90;;;;;;4094054;28;20039;-65
2023/01/25 06:15:16;;;;;;;37.10;22.67;;;2.90;99.90;;;;;;4093463;28;20827;-65
2023/01/25 06:17:16;;;;;;;34.97;21.70;;;2.90;99.90;;;;;;4096568;28;20048;-65
2023/01/25 06:19:17;;;;;;;38.17;22.88;;;3.00;99.90;;;;;;4093906;28;20415;-65
2023/01/25 06:21:17;;;;;;;35.95;22.48;;;3.00;99.90;;;;;;4094871;28;20117;-65
2023/01/25 06:23:18;;;;;;;35.50;22.10;;;3.00;99.90;;;;;;4092598;28;20035;-65
2023/01/25 06:25:19;;;;;;;43.10;24.05;;;3.00;99.90;;;;;;4095998;28;20102;-65
2023/01/25 06:27:19;;;;;;;41.60;26.25;;;3.00;99.90;;;;;;4095175;28;20047;-65
2023/01/25 06:29:20;;;;;;;38.45;24.15;;;3.00;99.90;;;;;;4092937;28;20046;-65
2023/01/25 06:31:20;;;;;;;39.55;24.88;;;3.00;99.90;;;;;;4092733;28;20051;-65
2023/01/25 06:33:22;;;;;;;37.40;22.52;;;3.00;99.90;;;;;;4095886;28;20087;-64
2023/01/25 06:35:23;;;;;;;34.90;21.42;;;3.00;99.90;;;;;;4093453;28;20043;-65
2023/01/25 06:37:23;;;;;;;34.00;21.13;;;3.00;99.90;;;;;;4095318;28;20114;-65
2023/01/25 06:39:24;;;;;;;36.83;22.90;;;3.00;99.90;;;;;;4095119;28;20491;-65
2023/01/25 06:41:25;;;;;;;36.92;23.55;;;3.00;99.90;;;;;;4096585;28;20042;-65
2023/01/25 06:43:26;;;;;;;34.28;23.42;;;3.00;99.90;;;;;;4088812;28;20043;-65
2023/01/25 06:45:27;;;;;;;34.35;22.30;;;2.90;99.90;;;;;;4088814;28;20042;-65
2023/01/25 06:47:27;;;;;;;34.00;21.63;;;2.90;99.90;;;;;;4086581;28;20137;-65
2023/01/25 06:49:28;;;;;;;32.00;20.58;;;2.90;99.90;;;;;;4087963;28;20039;-65
2023/01/25 06:51:29;;;;;;;33.53;21.83;;;2.90;99.90;;;;;;4090348;28;20983;-65
2023/01/25 06:53:32;;;;;;;35.40;22.05;;;2.90;99.90;;;;;;4080873;28;20035;-65
2023/01/25 06:55:32;;;;;;;37.97;23.77;;;2.90;99.90;;;;;;4077027;28;20066;-64
2023/01/25 06:57:33;;;;;;;37.50;22.88;;;2.90;99.90;;;;;;4086728;28;20052;-67
2023/01/25 06:59:34;;;;;;;36.92;23.17;;;2.90;99.90;;;;;;4081300;28;20066;-66
2023/01/25 07:01:36;;;;;;;38.13;25.00;;;2.90;99.90;;;;;;4061900;29;20040;-66
2023/01/25 07:03:37;;;;;;;37.50;23.35;;;3.00;99.90;;;;;;4073782;29;20415;-66
2023/01/25 07:05:38;;;;;;;32.72;20.85;;;2.90;99.90;;;;;;4057693;29;20044;-66
2023/01/25 07:07:38;;;;;;;35.10;22.63;;;2.90;99.90;;;;;;4089156;28;20047;-66
2023/01/25 07:09:39;;;;;;;32.97;22.17;;;2.90;99.90;;;;;;4091227;28;20082;-66
2023/01/25 07:11:39;;;;;;;35.30;21.02;;;2.90;99.90;;;;;;4089016;28;20046;-66
2023/01/25 07:13:42;;;;;;;39.75;23.67;;;2.90;99.90;;;;;;4087344;28;20063;-65
2023/01/25 07:15:43;;;;;;;38.72;23.83;;;2.90;99.90;;;;;;4075872;28;20039;-66
2023/01/25 07:17:43;;;;;;;39.53;23.83;;;2.90;99.90;;;;;;4089207;28;20090;-66
2023/01/25 07:19:44;;;;;;;34.67;22.50;;;3.00;99.90;;;;;;4089625;28;20031;-66
2023/01/25 07:21:45;;;;;;;35.17;22.40;;;3.00;99.90;;;;;;4089181;28;20043;-66
2023/01/25 07:23:47;;;;;;;35.65;21.75;;;3.00;99.90;;;;;;4089623;28;20046;-66
2023/01/25 07:25:49;;;;;;;34.50;20.93;;;3.00;99.90;;;;;;4087286;28;20043;-66
2023/01/25 07:27:50;;;;;;;33.33;21.30;;;3.00;99.90;;;;;;4088883;28;20044;-66
2023/01/25 07:29:51;;;;;;;36.60;22.70;;;3.00;99.90;;;;;;4090401;28;20066;-65
2023/01/25 07:31:51;;;;;;;35.67;22.75;;;3.00;99.90;;;;;;4070952;29;20043;-66
2023/01/25 07:33:54;;;;;;;38.80;23.65;;;3.00;99.90;;;;;;4088310;28;20039;-66
2023/01/25 07:35:58;;;;;;;;;;;3.00;99.90;;;;;;4087687;28;20039;-66
2023/01/25 07:37:59;;;;;;;41.05;24.73;;;3.00;99.90;;;;;;4087207;28;19918;-66
2023/01/25 07:39:59;;;;;;;41.83;25.92;;;3.00;99.90;;;;;;4087989;28;20075;-66
2023/01/25 07:42:00;;;;;;;40.08;25.70;;;3.00;99.90;;;;;;4084580;28;20051;-65
2023/01/25 07:44:00;;;;;;;42.35;25.83;;;2.90;99.90;;;;;;4079602;28;20043;-67
2023/01/25 07:46:12;;;;;;;48.28;27.55;;;2.90;99.90;;;;;;4082246;28;20038;-67
2023/01/25 07:48:13;;;;;;;43.13;26.38;;;2.90;99.90;;;;;;4075380;28;20044;-67
2023/01/25 07:50:13;;;;;;;40.28;24.27;;;2.80;99.90;;;;;;4081456;28;20050;-67
2023/01/25 07:52:14;;;;;;;37.70;23.05;;;2.80;99.90;;;;;;4087976;28;20047;-67
2023/01/25 07:54:14;;;;;;;36.88;22.38;;;2.80;99.90;;;;;;4088703;28;20138;-66
2023/01/25 07:56:15;;;;;;;36.95;22.17;;;2.80;99.90;;;;;;4087630;28;20486;-66
2023/01/25 07:58:16;;;;;;;34.50;22.65;;;2.90;99.90;;;;;;4086864;28;20047;-66
2023/01/25 08:00:17;;;;;;;41.70;26.23;;;2.90;99.90;;;;;;4087620;28;20055;-66
2023/01/25 08:02:17;;;;;;;46.65;28.10;;;2.90;99.90;;;;;;4085054;28;20040;-66
2023/01/25 08:04:18;;;;;;;40.92;25.15;;;2.90;99.90;;;;;;4088424;28;20529;-66
2023/01/25 08:06:26;;;;;;;38.88;24.90;;;2.80;99.90;;;;;;4086954;28;20508;-66
2023/01/25 08:08:26;;;;;;;39.25;23.90;;;2.80;99.90;;;;;;4087818;28;20479;-67
2023/01/25 08:10:27;;;;;;;33.55;21.90;;;2.80;99.90;;;;;;4087290;28;20090;-66
2023/01/25 08:12:27;;;;;;;36.03;23.67;;;2.80;99.90;;;;;;4088680;28;20066;-66
2023/01/25 08:14:28;;;;;;;36.10;23.55;;;2.70;99.90;;;;;;4086701;28;20070;-66
2023/01/25 08:16:30;;;;;;;36.47;22.48;;;2.70;99.90;;;;;;4086718;28;20111;-65
2023/01/25 08:18:31;;;;;;;36.38;21.88;;;2.60;99.90;;;;;;4090472;28;20122;-66
2023/01/25 08:20:32;;;;;;;33.38;22.08;;;2.70;99.90;;;;;;4088185;28;20043;-67
2023/01/25 08:22:32;;;;;;;35.25;21.75;;;2.70;99.90;;;;;;4083206;28;20062;-66
2023/01/25 08:24:33;;;;;;;36.20;22.50;;;2.70;99.90;;;;;;4085171;28;20043;-66
2023/01/25 08:26:35;;;;;;;39.38;23.52;;;2.70;99.90;;;;;;4086976;28;20042;-66
2023/01/25 08:28:35;;;;;;;39.28;24.48;;;2.70;99.90;;;;;;4093397;28;20035;-67
2023/01/25 08:30:36;;;;;;;35.83;23.40;;;2.70;99.90;;;;;;4089969;28;20085;-66
2023/01/25 08:32:37;;;;;;;35.58;22.00;;;2.70;99.90;;;;;;4085054;28;20125;-66
2023/01/25 08:34:39;;;;;;;33.10;20.63;;;2.70;99.90;;;;;;4083850;28;20071;-66
2023/01/25 08:36:40;;;;;;;37.97;21.73;;;2.70;99.90;;;;;;4092087;28;20042;-66
2023/01/25 08:38:41;;;;;;;35.10;22.90;;;2.70;99.90;;;;;;4093568;28;20066;-66
2023/01/25 08:40:41;;;;;;;38.22;23.90;;;2.70;99.90;;;;;;4093527;28;20039;-66
2023/01/25 08:42:42;;;;;;;38.25;23.77;;;2.70;99.90;;;;;;4091930;28;20039;-66
2023/01/25 08:44:42;;;;;;;34.90;22.67;;;2.70;99.90;;;;;;4097341;28;20454;-66
2023/01/25 08:46:45;;;;;;;32.38;20.73;;;2.70;99.90;;;;;;4088433;28;20035;-66
2023/01/25 08:48:45;;;;;;;34.10;21.38;;;2.70;99.90;;;;;;4092650;28;20046;-66
2023/01/25 08:50:46;;;;;;;43.90;26.75;;;2.80;99.90;;;;;;4086695;28;20402;-66
2023/01/25 08:52:47;;;;;;;42.35;26.77;;;2.80;99.90;;;;;;4093370;28;20087;-66
2023/01/25 08:54:47;;;;;;;40.85;25.50;;;2.80;99.90;;;;;;4092143;28;20118;-66
2023/01/25 08:56:48;;;;;;;41.25;24.05;;;2.70;99.90;;;;;;4091851;28;20055;-67
2023/01/25 08:58:49;;;;;;;37.08;23.35;;;2.70;99.90;;;;;;4092816;28;20039;-64
2023/01/25 09:00:50;;;;;;;46.42;26.92;;;2.70;99.90;;;;;;4089774;28;20461;-65
2023/01/25 09:02:50;;;;;;;38.20;24.80;;;2.80;99.90;;;;;;4089937;28;20067;-65
2023/01/25 09:04:51;;;;;;;49.53;29.73;;;2.80;99.90;;;;;;4091370;28;20059;-65
2023/01/25 09:06:51;;;;;;;40.05;25.63;;;2.80;99.90;;;;;;4091892;28;20043;-66
2023/01/25 09:08:52;;;;;;;38.40;24.90;;;2.80;99.90;;;;;;4094014;28;20071;-65
2023/01/25 09:10:53;;;;;;;40.50;25.08;;;2.80;99.90;;;;;;4093353;28;20066;-66
2023/01/25 09:12:53;;;;;;;38.30;24.42;;;2.80;99.90;;;;;;4093470;28;20074;-67
2023/01/25 09:14:54;;;;;;;38.92;24.73;;;2.80;99.90;;;;;;4093482;28;20455;-68
2023/01/25 09:16:54;;;;;;;41.20;25.55;;;2.80;99.90;;;;;;4091788;28;20046;-67
2023/01/25 09:19:04;;;;;;;36.08;23.92;;;2.80;99.90;;;;;;4082390;28;20043;-67
2023/01/25 09:21:10;;;;;;;36.42;24.45;;;2.70;99.90;;;;;;4091011;28;20097;-67
2023/01/25 09:23:11;;;;;;;39.90;24.52;;;2.70;99.90;;;;;;4092111;28;20106;-67
2023/01/25 09:25:12;;;;;;;37.05;23.45;;;2.70;99.90;;;;;;4091431;28;20035;-68
2023/01/25 09:27:13;;;;;;;38.40;24.98;;;2.70;99.90;;;;;;4093557;28;20050;-67
2023/01/25 09:29:14;;;;;;;41.10;25.77;;;2.70;99.90;;;;;;4091891;28;20071;-67
2023/01/25 09:31:15;;;;;;;39.83;24.65;;;2.70;99.90;;;;;;4091237;28;20122;-67
2023/01/25 09:33:16;;;;;;;39.38;25.08;;;2.70;99.90;;;;;;4093670;28;20043;-67
2023/01/25 09:35:16;;;;;;;41.90;26.23;;;2.70;99.90;;;;;;4090865;28;20051;-67
2023/01/25 09:37:17;;;;;;;41.22;26.35;;;2.70;99.90;;;;;;4094097;28;20039;-67
2023/01/25 09:39:19;;;;;;;48.05;28.77;;;2.70;99.90;;;;;;4093707;28;20418;-67
2023/01/25 09:41:55;;;;;;;48.75;28.77;;;2.70;99.90;;;;;;4092240;28;20042;-67
2023/01/25 09:44:01;;;;;;;42.05;25.90;;;2.60;99.90;;;;;;4086372;28;20078;-67
2023/01/25 09:46:16;;;;;;;41.45;26.45;;;2.60;99.90;;;;;;4089582;28;20174;-66
2023/01/25 09:48:37;;;;;;;40.03;24.58;;;2.60;99.90;;;;;;4093829;28;20066;-67
2023/01/25 09:51:03;;;;;;;41.17;25.02;;;2.60;99.90;;;;;;4094463;28;20062;-67
2023/01/25 09:53:19;;;;;;;41.65;26.00;;;2.60;99.90;;;;;;4095685;28;20035;-67
2023/01/25 09:55:24;;;;;;;40.70;25.05;;;2.60;99.90;;;;;;4078606;29;20540;-67
2023/01/25 09:57:28;;;;;;;39.90;24.85;;;2.60;99.90;;;;;;4094972;28;20060;-66
2023/01/25 09:59:30;;;;;;;41.90;25.35;;;2.60;99.90;;;;;;4097413;28;20041;-66
2023/01/25 10:01:52;;;;;;;44.43;24.47;;;2.60;99.90;;;;;;4096212;28;20037;-67
2023/01/25 10:04:02;;;;;;;37.70;23.90;;;2.60;99.90;;;;;;4092342;28;20035;-66
2023/01/25 10:06:03;;;;;;;37.33;24.15;;;2.70;99.90;;;;;;4094717;28;20282;-67
2023/01/25 10:08:36;;;;;;;35.28;23.33;;;2.60;99.90;;;;;;4088493;28;20056;-66
2023/01/25 10:10:42;;;;;;;43.08;27.10;;;2.70;99.90;;;;;;4084999;29;20467;-67
2023/01/25 10:12:43;;;;;;;44.75;27.92;;;2.70;99.90;;;;;;4077849;29;20127;-66
2023/01/25 10:14:43;;;;;;;41.38;26.80;;;2.70;99.90;;;;;;4097039;28;20050;-67
2023/01/25 10:16:48;;;;;;;44.45;26.70;;;2.70;99.90;;;;;;4082164;29;20043;-66
2023/01/25 10:19:06;;;;;;;40.38;26.08;;;2.70;99.90;;;;;;4094110;28;20043;-67
2023/01/25 10:21:16;;;;;;;42.55;27.15;;;2.70;99.90;;;;;;4092767;28;20035;-66
2023/01/25 10:23:17;;;;;;;46.10;27.88;;;2.70;99.90;;;;;;4089292;28;20027;-67
2023/01/25 10:25:41;;;;;;;42.38;26.30;;;2.80;99.90;;;;;;4085768;28;20095;-67
2023/01/25 10:27:42;;;;;;;39.22;23.88;;;2.80;99.90;;;;;;4087744;28;21944;-66
2023/01/25 10:29:43;;;;;;;38.65;23.40;;;2.80;99.90;;;;;;4092300;28;20070;-67
2023/01/25 10:31:49;;;;;;;38.58;24.17;;;2.70;99.90;;;;;;4086429;28;20043;-67
2023/01/25 10:33:51;;;;;;;39.28;24.23;;;2.80;99.90;;;;;;4092911;28;20043;-67